createdAt,value
2022-09-22T00:03:45.855Z,5.00
2022-09-22T00:06:13.785Z,5.25
2022-09-22T00:08:41.889Z,4.82
2022-09-22T00:11:14.000Z,5.80
2022-09-22T00:13:41.177Z,4.78
2022-09-22T00:16:08.951Z,5.68
2022-09-22T00:21:08.102Z,5.45
2022-09-22T00:23:35.414Z,6.00
2022-09-22T00:28:34.990Z,6.20
2022-09-22T00:31:06.520Z,6.97
2022-09-22T00:33:33.476Z,6.47
2022-09-22T00:38:26.863Z,6.80
2022-09-22T00:40:53.621Z,6.43
2022-09-22T00:43:21.879Z,7.05
2022-09-22T00:45:50.274Z,6.55
2022-09-22T00:48:18.916Z,7.18
2022-09-22T00:50:45.874Z,6.97
2022-09-22T00:53:13.804Z,7.20
2022-09-22T00:55:40.406Z,7.80
2022-09-22T00:58:09.321Z,7.75
2022-09-22T01:00:36.135Z,8.00
2022-09-22T01:03:04.250Z,8.77
2022-09-22T01:05:31.641Z,9.55
2022-09-22T01:07:58.985Z,8.93
2022-09-22T01:10:28.475Z,8.20
2022-09-22T01:17:58.995Z,8.50
2022-09-22T01:20:44.027Z,9.27
2022-09-22T01:23:10.649Z,9.27
2022-09-22T01:28:17.772Z,8.48
2022-09-22T01:30:47.983Z,8.88
2022-09-22T01:38:42.562Z,7.13
2022-09-22T01:41:19.862Z,7.93
2022-09-22T01:43:52.185Z,7.57
2022-09-22T01:46:26.996Z,6.47
2022-09-22T01:48:54.848Z,7.25
2022-09-22T01:51:24.699Z,6.93
2022-09-22T01:53:54.204Z,6.80
2022-09-22T01:56:21.509Z,6.55
2022-09-22T01:58:53.056Z,6.35
2022-09-22T02:03:57.179Z,5.78
2022-09-22T02:11:22.818Z,6.90
2022-09-22T02:13:49.852Z,7.50
2022-09-22T02:16:19.043Z,6.88
2022-09-22T02:18:49.677Z,7.07
2022-09-22T02:26:10.551Z,6.47
2022-09-22T02:28:39.124Z,6.38
2022-09-22T02:31:22.254Z,6.68
2022-09-22T02:33:49.955Z,6.28
2022-09-22T02:36:35.824Z,6.00
2022-09-22T02:39:10.591Z,6.13
2022-09-22T02:41:46.346Z,6.60
2022-09-22T02:44:21.443Z,5.72
2022-09-22T02:46:56.041Z,6.07
2022-09-22T02:57:18.914Z,5.85
2022-09-22T02:59:45.649Z,5.80
2022-09-22T03:02:12.681Z,5.82
2022-09-22T03:04:39.349Z,5.90
2022-09-22T03:07:07.014Z,6.32
2022-09-22T03:11:59.482Z,6.25
2022-09-22T03:14:26.080Z,6.80
2022-09-22T03:19:18.078Z,6.57
2022-09-22T03:21:44.717Z,6.60
2022-09-22T03:24:11.300Z,6.90
2022-09-22T03:26:37.949Z,6.72
2022-09-22T03:29:04.551Z,6.97
2022-09-22T03:33:56.589Z,7.53
2022-09-22T03:36:23.411Z,7.63
2022-09-22T03:38:50.086Z,7.90
2022-09-22T03:41:17.539Z,7.65
2022-09-22T03:43:44.119Z,7.38
2022-09-22T03:46:10.757Z,8.10
2022-09-22T03:48:39.672Z,8.45
2022-09-22T03:51:09.462Z,8.13
2022-09-22T03:53:36.689Z,7.55
2022-09-22T03:56:10.914Z,8.35
2022-09-22T04:03:29.630Z,7.47
2022-09-22T04:08:22.904Z,8.05
2022-09-22T04:10:49.634Z,8.15
2022-09-22T04:15:41.685Z,7.80
2022-09-22T04:18:08.415Z,7.65
2022-09-22T04:20:37.214Z,6.93
2022-09-22T04:23:04.026Z,6.72
2022-09-22T04:25:32.082Z,7.20
2022-09-22T04:28:02.327Z,6.68
2022-09-22T04:30:32.578Z,7.47
2022-09-22T04:35:28.511Z,8.27
2022-09-22T04:37:55.786Z,7.85
2022-09-22T04:42:51.553Z,7.82
2022-09-22T04:45:18.667Z,6.95
2022-09-22T04:47:53.426Z,6.93
2022-09-22T04:50:22.144Z,6.28
2022-09-22T04:52:50.238Z,6.32
2022-09-22T05:02:38.042Z,5.95
2022-09-22T05:05:05.897Z,5.20
2022-09-22T05:07:32.932Z,5.80
2022-09-22T05:10:00.208Z,5.20
2022-09-22T05:12:27.156Z,5.50
2022-09-22T05:14:53.701Z,6.82
2022-09-22T05:19:46.618Z,10.77
2022-09-22T05:22:13.567Z,13.52
2022-09-22T05:24:42.564Z,12.30
2022-09-22T05:27:09.369Z,10.77
2022-09-22T05:29:35.968Z,10.18
2022-09-22T05:32:02.771Z,10.48
2022-09-22T05:34:29.389Z,9.45
2022-09-22T05:36:55.983Z,9.60
2022-09-22T05:42:23.883Z,10.82
2022-09-22T05:44:50.514Z,13.13
2022-09-22T05:47:17.119Z,13.82
2022-09-22T05:49:43.739Z,9.50
2022-09-22T05:52:10.370Z,10.43
2022-09-22T05:54:37.024Z,8.90
2022-09-22T05:57:03.686Z,6.93
2022-09-22T05:59:30.317Z,7.40
2022-09-22T06:01:59.638Z,7.72
2022-09-22T06:04:27.310Z,7.90
2022-09-22T06:06:53.886Z,6.10
2022-09-22T06:11:45.984Z,6.20
2022-09-22T06:14:12.592Z,5.15
2022-09-22T06:16:39.214Z,5.10
2022-09-22T06:19:05.890Z,5.10
2022-09-22T06:21:32.572Z,5.45
2022-09-22T06:26:24.658Z,4.85
2022-09-22T06:28:51.404Z,4.90
2022-09-22T06:31:18.076Z,4.90
2022-09-22T06:36:13.852Z,7.05
2022-09-22T06:38:40.473Z,10.50
2022-09-22T06:46:00.332Z,6.63
2022-09-22T06:55:46.139Z,7.00
2022-09-22T06:58:13.316Z,7.90
2022-09-22T07:00:42.035Z,7.38
2022-09-22T07:03:22.487Z,7.60
2022-09-22T07:05:56.591Z,7.15
2022-09-22T07:10:53.466Z,8.48
2022-09-22T07:13:20.086Z,6.88
2022-09-22T07:18:12.217Z,6.55
2022-09-22T07:26:45.432Z,6.13
2022-09-22T07:29:13.587Z,5.50
2022-09-22T07:31:41.927Z,5.88
2022-09-22T07:34:09.213Z,5.55
2022-09-22T07:36:37.205Z,5.03
2022-09-22T07:39:03.931Z,5.28
2022-09-22T07:43:57.248Z,5.07
2022-09-22T07:46:24.286Z,5.00
2022-09-22T07:48:51.373Z,5.28
2022-09-22T07:53:49.862Z,4.68
2022-09-22T07:56:17.689Z,4.25
2022-09-22T08:01:15.575Z,5.40
2022-09-22T08:03:42.522Z,4.57
2022-09-22T08:06:11.178Z,4.47
2022-09-22T08:08:42.267Z,5.20
2022-09-22T08:13:42.792Z,4.78
2022-09-22T08:16:10.453Z,4.20
2022-09-22T08:21:04.426Z,3.63
2022-09-22T08:23:33.900Z,3.35
2022-09-22T08:30:58.967Z,3.50
2022-09-22T08:35:54.622Z,3.00
2022-09-22T08:38:23.190Z,3.35
2022-09-22T08:43:25.234Z,2.95
2022-09-22T08:45:52.619Z,2.70
2022-09-22T08:48:42.057Z,2.30
2022-09-22T08:51:30.553Z,2.72
2022-09-22T08:54:02.439Z,2.50
2022-09-22T08:56:33.100Z,2.65
2022-09-22T09:01:43.833Z,2.20
2022-09-22T09:07:07.220Z,3.10
2022-09-22T09:12:24.592Z,3.35
2022-09-22T09:22:44.984Z,1.90
2022-09-22T09:25:24.759Z,2.28
2022-09-22T09:27:57.529Z,1.98
2022-09-22T09:30:24.130Z,1.80
2022-09-22T09:32:59.273Z,1.92
2022-09-22T09:38:01.321Z,1.80
2022-09-22T09:40:28.418Z,2.00
2022-09-22T09:43:04.138Z,1.38
2022-09-22T09:45:37.265Z,1.55
2022-09-22T09:50:55.429Z,1.40
2022-09-22T09:53:31.306Z,1.30
2022-09-22T09:55:58.929Z,1.30
2022-09-22T09:58:44.309Z,1.50
2022-09-22T10:01:14.802Z,1.23
2022-09-22T10:03:46.982Z,1.40
2022-09-22T10:06:14.250Z,1.27
2022-09-22T10:08:48.060Z,1.60
2022-09-22T10:11:15.243Z,1.40
2022-09-22T10:13:42.770Z,1.42
2022-09-22T10:19:00.375Z,1.23
2022-09-22T10:21:28.141Z,1.30
2022-09-22T10:23:55.725Z,1.30
2022-09-22T10:26:22.859Z,1.10
2022-09-22T10:29:21.954Z,1.20
2022-09-22T10:32:02.656Z,1.10
2022-09-22T10:34:32.494Z,1.27
2022-09-22T10:36:59.808Z,0.80
2022-09-22T10:42:19.579Z,1.33
2022-09-22T10:44:48.851Z,1.30
2022-09-22T10:47:35.992Z,1.10
2022-09-22T10:55:05.109Z,1.13
2022-09-22T10:57:50.465Z,1.08
2022-09-22T11:00:21.232Z,0.90
2022-09-22T11:11:32.696Z,1.40
2022-09-22T11:14:04.189Z,1.30
2022-09-22T11:16:36.818Z,1.63
2022-09-22T11:19:13.296Z,1.23
2022-09-22T11:21:50.864Z,1.30
2022-09-22T11:24:17.514Z,1.20
2022-09-22T11:26:47.733Z,1.15
2022-09-22T11:34:48.613Z,1.10
2022-09-22T11:37:27.416Z,1.30
2022-09-22T11:40:06.896Z,1.45
2022-09-22T11:42:33.550Z,1.60
2022-09-22T11:50:08.942Z,1.40
2022-09-22T11:55:39.562Z,1.33
2022-09-22T12:00:40.796Z,0.98
2022-09-22T12:05:48.182Z,1.17
2022-09-22T12:08:16.976Z,1.25
2022-09-22T12:10:44.838Z,1.10
2022-09-22T12:13:13.371Z,1.38
2022-09-22T12:25:55.652Z,1.38
2022-09-22T12:30:53.908Z,1.33
2022-09-22T12:33:22.071Z,1.20
2022-09-22T12:35:53.233Z,1.25
2022-09-22T12:40:49.801Z,1.13
2022-09-22T12:43:21.309Z,1.08
2022-09-22T12:50:41.266Z,1.40
2022-09-22T13:06:23.138Z,1.08
2022-09-22T13:08:52.525Z,1.17
2022-09-22T13:11:19.126Z,1.05
2022-09-22T13:13:47.273Z,1.20
2022-09-22T13:16:13.936Z,1.08
2022-09-22T13:18:41.683Z,1.33
2022-09-22T13:21:14.468Z,1.30
2022-09-22T13:23:59.049Z,1.30
2022-09-22T13:29:04.342Z,2.28
2022-09-22T13:31:38.674Z,4.97
2022-09-22T13:34:17.629Z,1.88
2022-09-22T13:36:44.717Z,1.42
2022-09-22T13:39:13.614Z,1.05
2022-09-22T13:41:45.675Z,1.17
2022-09-22T13:44:13.648Z,1.00
2022-09-22T13:49:17.205Z,1.20
2022-09-22T13:51:48.390Z,1.35
2022-09-22T13:54:16.405Z,1.00
2022-09-22T13:56:44.738Z,1.08
2022-09-22T14:01:45.708Z,1.25
2022-09-22T14:04:26.704Z,1.13
2022-09-22T14:06:56.027Z,1.13
2022-09-22T14:09:23.053Z,1.60
2022-09-22T14:11:50.083Z,1.02
2022-09-22T14:14:22.257Z,1.73
2022-09-22T14:16:48.854Z,1.17
2022-09-22T14:21:46.538Z,1.27
2022-09-22T14:24:14.014Z,1.02
2022-09-22T14:29:17.771Z,1.10
2022-09-22T14:31:46.662Z,1.30
2022-09-22T14:34:18.650Z,1.10
2022-09-22T14:39:17.166Z,1.20
2022-09-22T14:41:50.046Z,1.40
2022-09-22T14:44:35.378Z,1.33
2022-09-22T14:50:09.378Z,1.55
2022-09-22T14:52:37.897Z,1.52
2022-09-22T14:55:16.250Z,1.70
2022-09-22T15:00:34.646Z,1.38
2022-09-22T15:03:02.049Z,1.40
2022-09-22T15:05:30.485Z,1.60
2022-09-22T15:07:57.652Z,1.40
2022-09-22T15:13:17.288Z,2.42
2022-09-22T15:15:48.278Z,1.17
2022-09-22T15:18:19.545Z,1.05
2022-09-22T15:21:29.374Z,1.40
2022-09-22T15:23:57.884Z,1.35
2022-09-22T15:26:25.772Z,1.40
2022-09-22T15:28:53.623Z,1.40
2022-09-22T15:31:26.875Z,1.27
2022-09-22T15:33:57.744Z,1.70
2022-09-22T15:36:25.722Z,1.55
2022-09-22T15:43:49.387Z,1.38
2022-09-22T15:46:33.978Z,1.30
2022-09-22T15:49:03.235Z,1.10
2022-09-22T15:51:32.971Z,1.30
2022-09-22T15:56:27.019Z,1.52
2022-09-22T15:58:53.921Z,2.15
2022-09-22T16:06:12.713Z,1.45
2022-09-22T16:08:44.559Z,1.42
2022-09-22T16:11:16.090Z,1.38
2022-09-22T16:16:28.938Z,1.45
2022-09-22T16:18:56.112Z,1.30
2022-09-22T16:21:26.191Z,2.00
2022-09-22T16:23:54.754Z,2.00
2022-09-22T16:26:21.548Z,1.80
2022-09-22T16:31:15.708Z,2.13
2022-09-22T16:33:42.469Z,1.80
2022-09-22T16:36:09.058Z,1.67
2022-09-22T16:38:35.816Z,1.92
2022-09-22T16:41:03.703Z,1.70
2022-09-22T16:43:30.290Z,1.80
2022-09-22T16:46:15.609Z,1.60
2022-09-22T16:48:42.514Z,2.00
2022-09-22T16:51:19.378Z,2.17
2022-09-22T16:56:21.550Z,1.70
2022-09-22T16:58:48.503Z,1.90
2022-09-22T17:01:19.400Z,2.10
2022-09-22T17:03:47.291Z,1.90
2022-09-22T17:06:14.900Z,1.88
2022-09-22T17:08:45.904Z,1.92
2022-09-22T17:11:15.520Z,1.80
2022-09-22T17:13:45.026Z,2.30
2022-09-22T17:16:31.461Z,1.98
2022-09-22T17:18:59.901Z,2.33
2022-09-22T17:21:30.142Z,2.13
2022-09-22T17:24:02.110Z,2.03
2022-09-22T17:26:36.198Z,1.90
2022-09-22T17:31:31.246Z,2.00
2022-09-22T17:33:58.192Z,1.98
2022-09-22T17:36:25.717Z,1.92
2022-09-22T17:38:56.783Z,2.05
2022-09-22T17:41:26.646Z,1.90
2022-09-22T17:43:57.378Z,2.00
2022-09-22T17:46:25.319Z,2.00
2022-09-22T17:49:10.428Z,3.78
2022-09-22T17:51:57.011Z,8.80
2022-09-22T17:54:52.503Z,2.60
2022-09-22T17:57:20.422Z,1.98
2022-09-22T17:59:47.412Z,1.70
2022-09-22T18:02:15.489Z,2.53
2022-09-22T18:04:42.967Z,2.15
2022-09-22T18:07:11.403Z,2.00
2022-09-22T18:09:39.942Z,1.45
2022-09-22T18:12:08.065Z,1.67
2022-09-22T18:14:35.689Z,1.95
2022-09-22T18:19:34.714Z,1.98
2022-09-22T18:22:02.703Z,1.60
2022-09-22T18:24:29.321Z,1.60
2022-09-22T18:26:55.947Z,2.53
2022-09-22T18:29:22.525Z,2.75
2022-09-22T18:31:54.716Z,3.10
2022-09-22T18:36:47.269Z,3.28
2022-09-22T18:39:13.998Z,3.15
2022-09-22T18:41:41.354Z,2.97
2022-09-22T18:44:09.280Z,3.83
2022-09-22T18:46:36.375Z,2.90
2022-09-22T18:51:35.061Z,3.10
2022-09-22T18:54:08.138Z,3.10
2022-09-22T18:56:36.314Z,2.83
2022-09-22T18:59:03.695Z,3.30
2022-09-22T19:04:02.630Z,3.35
2022-09-22T19:06:30.015Z,2.97
2022-09-22T19:11:22.448Z,3.30
2022-09-22T19:13:49.669Z,3.97
2022-09-22T19:16:16.313Z,3.13
2022-09-22T19:18:42.988Z,3.20
2022-09-22T19:21:14.265Z,2.78
2022-09-22T19:23:41.778Z,3.30
2022-09-22T19:26:10.738Z,3.65
2022-09-22T19:28:37.506Z,3.20
2022-09-22T19:31:04.215Z,3.17
2022-09-22T19:33:31.224Z,3.47
2022-09-22T19:35:58.181Z,2.75
2022-09-22T19:40:56.365Z,2.90
2022-09-22T19:43:24.425Z,3.85
2022-09-22T19:48:17.892Z,4.28
2022-09-22T19:50:44.750Z,4.05
2022-09-22T19:55:36.779Z,3.50
2022-09-22T19:58:03.430Z,3.00
2022-09-22T20:00:32.045Z,4.30
2022-09-22T20:02:59.325Z,3.20
2022-09-22T20:05:30.303Z,3.55
2022-09-22T20:07:56.872Z,3.50
2022-09-22T20:10:43.896Z,3.22
2022-09-22T20:13:28.996Z,4.43
2022-09-22T20:15:57.964Z,4.32
2022-09-22T20:18:27.221Z,4.50
2022-09-22T20:23:22.142Z,5.30
2022-09-22T20:25:49.998Z,5.43
2022-09-22T20:28:16.981Z,5.75
2022-09-22T20:30:44.250Z,5.55
2022-09-22T20:48:15.994Z,8.63
2022-09-22T20:50:42.639Z,8.38
2022-09-22T20:53:09.321Z,8.18
2022-09-22T20:55:35.951Z,6.90
2022-09-22T20:58:03.241Z,8.57
2022-09-22T21:00:29.879Z,8.18
2022-09-22T21:03:00.394Z,7.03
2022-09-22T21:05:27.849Z,6.50
2022-09-22T21:10:39.883Z,6.25
2022-09-22T21:13:06.519Z,5.45
2022-09-22T21:15:33.160Z,4.60
2022-09-22T21:17:59.919Z,4.63
2022-09-22T21:20:27.167Z,4.28
2022-09-22T21:22:54.138Z,4.70
2022-09-22T21:25:20.745Z,4.68
2022-09-22T21:27:47.303Z,4.20
2022-09-22T21:30:13.982Z,3.90
2022-09-22T21:32:40.638Z,4.50
2022-09-22T21:35:07.582Z,4.25
2022-09-22T21:39:59.641Z,4.03
2022-09-22T21:42:27.000Z,4.00
2022-09-22T21:44:53.672Z,3.85
2022-09-22T21:47:20.391Z,3.88
2022-09-22T21:49:46.964Z,3.85
2022-09-22T21:54:42.002Z,3.83
2022-09-22T21:57:08.622Z,4.10
2022-09-22T21:59:35.182Z,3.85
2022-09-22T22:02:01.819Z,4.03
2022-09-22T22:04:28.461Z,4.13
2022-09-22T22:06:56.170Z,4.13
2022-09-22T22:19:13.529Z,4.60
2022-09-22T22:21:41.140Z,4.60
2022-09-22T22:24:17.768Z,4.90
2022-09-22T22:26:51.817Z,5.38
2022-09-22T22:29:19.240Z,4.72
2022-09-22T22:31:47.506Z,4.80
2022-09-22T22:34:17.533Z,4.60
2022-09-22T22:36:44.247Z,5.55
2022-09-22T22:39:11.257Z,5.22
2022-09-22T22:41:38.962Z,4.38
2022-09-22T22:44:07.239Z,4.45
2022-09-22T22:46:34.681Z,4.78
2022-09-22T22:49:01.373Z,5.30
2022-09-22T22:51:28.070Z,4.80
2022-09-22T22:53:57.789Z,4.95
2022-09-22T22:56:25.649Z,5.43
2022-09-22T22:58:53.215Z,5.20
2022-09-22T23:01:20.999Z,4.97
2022-09-22T23:03:50.418Z,4.88
2022-09-22T23:06:18.497Z,4.78
2022-09-22T23:08:45.220Z,4.60
2022-09-22T23:11:13.651Z,4.88
2022-09-22T23:16:12.085Z,4.57
2022-09-22T23:18:40.227Z,4.63
2022-09-22T23:23:33.375Z,4.75
2022-09-22T23:26:00.232Z,4.90
2022-09-22T23:28:26.863Z,4.78
2022-09-22T23:31:00.216Z,4.50
2022-09-22T23:33:27.861Z,4.30
2022-09-22T23:35:55.529Z,4.85
2022-09-22T23:38:22.901Z,4.95
2022-09-22T23:40:49.772Z,5.13
2022-09-22T23:43:17.126Z,4.65
2022-09-22T23:45:43.714Z,4.57
2022-09-22T23:50:36.781Z,5.10
2022-09-22T23:53:03.454Z,4.20
